Time;durP1;ratioP1;P1;durP2;ratioP2;P2;SDS_P1;SDS_P2;PMS_P1;PMS_P2;Temp;Humidity;BMP_temperature;BMP_pressure;BME280_temperature;BME280_humidity;BME280_pressure;Samples;Min_cycle;Max_cycle;Signal;HPM_P1;HPM_P2
2023/07/19 00:00:42;;;;;;;8.77;3.70;;;17.50;99.90;;;;;;5064151;28;20181;-79
2023/07/19 00:03:07;;;;;;;5.27;3.33;;;17.50;99.90;;;;;;5062769;28;20174;-79
2023/07/19 00:05:33;;;;;;;8.20;3.30;;;17.50;99.90;;;;;;5074956;28;20201;-78
2023/07/19 00:08:01;;;;;;;19.70;3.00;;;17.50;99.90;;;;;;5073186;28;20196;-78
2023/07/19 00:10:27;;;;;;;5.00;3.03;;;17.50;99.90;;;;;;5069920;28;20189;-79
2023/07/19 00:12:53;;;;;;;6.00;2.20;;;17.50;99.90;;;;;;5074250;28;20514;-79
2023/07/19 00:15:18;;;;;;;5.70;3.47;;;17.50;99.90;;;;;;5061666;28;20221;-79
2023/07/19 00:17:44;;;;;;;7.97;3.83;;;17.50;99.90;;;;;;5070758;28;20179;-78
2023/07/19 00:20:14;;;;;;;5.10;3.10;;;17.40;99.90;;;;;;5052100;28;20217;-78
2023/07/19 00:22:40;;;;;;;7.83;4.43;;;17.40;99.90;;;;;;5050738;28;20189;-78
2023/07/19 00:25:07;;;;;;;7.97;4.23;;;17.40;99.90;;;;;;5074745;28;20500;-79
2023/07/19 00:27:32;;;;;;;7.70;3.57;;;17.40;99.90;;;;;;5050942;28;20192;-79
2023/07/19 00:29:58;;;;;;;4.73;3.13;;;17.30;99.90;;;;;;5072657;28;20447;-79
2023/07/19 00:32:24;;;;;;;8.57;3.40;;;17.30;99.90;;;;;;5074104;28;20676;-76
2023/07/19 00:34:50;;;;;;;8.30;3.53;;;17.20;99.90;;;;;;5066417;28;20276;-79
2023/07/19 00:37:15;;;;;;;7.90;4.10;;;17.20;99.90;;;;;;5072010;28;20667;-79
2023/07/19 00:39:42;;;;;;;8.30;3.10;;;17.20;99.90;;;;;;5070675;28;20181;-79
2023/07/19 00:42:07;;;;;;;5.20;3.27;;;17.20;99.90;;;;;;5067888;28;20292;-79
2023/07/19 00:44:33;;;;;;;8.77;3.70;;;17.20;99.90;;;;;;5073841;28;20482;-79
2023/07/19 00:47:01;;;;;;;4.50;2.53;;;17.20;99.90;;;;;;5054375;28;20189;-78
2023/07/19 00:49:27;;;;;;;11.20;3.63;;;17.20;99.90;;;;;;5061499;28;20194;-78
2023/07/19 00:51:53;;;;;;;6.57;3.37;;;17.20;99.90;;;;;;5071280;28;20431;-78
2023/07/19 00:54:21;;;;;;;8.17;4.37;;;17.20;99.90;;;;;;5073228;28;20466;-78
2023/07/19 00:56:47;;;;;;;8.93;3.80;;;17.20;99.90;;;;;;5063665;28;20444;-79
2023/07/19 00:59:14;;;;;;;6.67;3.30;;;17.20;99.90;;;;;;5069824;28;20545;-79
2023/07/19 01:01:43;;;;;;;8.17;3.07;;;17.30;99.90;;;;;;5067449;28;20476;-79
2023/07/19 01:04:09;;;;;;;4.80;2.70;;;17.20;99.90;;;;;;5073419;28;20987;-78
2023/07/19 01:06:34;;;;;;;4.33;2.60;;;17.20;99.90;;;;;;5072048;28;20427;-77
2023/07/19 01:09:00;;;;;;;7.20;3.77;;;17.10;99.90;;;;;;5055844;28;20235;-79
2023/07/19 01:11:26;;;;;;;6.80;3.20;;;17.10;99.90;;;;;;5076784;28;20181;-79
2023/07/19 01:13:55;;;;;;;8.97;4.67;;;17.20;99.90;;;;;;5092722;28;20197;-77
2023/07/19 01:16:21;;;;;;;11.10;3.43;;;17.30;99.90;;;;;;5097448;28;20165;-78
2023/07/19 01:18:47;;;;;;;7.83;3.10;;;17.30;99.90;;;;;;5088990;28;20445;-79
2023/07/19 01:21:13;;;;;;;6.83;3.40;;;17.30;99.90;;;;;;5092963;28;20299;-79
2023/07/19 01:23:39;;;;;;;4.50;2.70;;;17.40;99.90;;;;;;5073031;28;20483;-78
2023/07/19 01:26:05;;;;;;;6.17;3.10;;;17.40;99.90;;;;;;5061737;28;20177;-79
2023/07/19 01:28:31;;;;;;;6.00;3.00;;;17.40;99.90;;;;;;5073704;28;20484;-80
2023/07/19 01:30:56;;;;;;;9.67;3.77;;;17.30;99.90;;;;;;5063977;28;20239;-79
2023/07/19 01:33:22;;;;;;;8.70;3.97;;;17.20;99.90;;;;;;5061790;28;20242;-79
2023/07/19 01:35:47;;;;;;;5.43;3.23;;;17.20;99.90;;;;;;5065609;28;20188;-79
2023/07/19 01:38:13;;;;;;;9.00;3.37;;;17.10;99.90;;;;;;5071781;28;20557;-78
2023/07/19 01:40:39;;;;;;;6.00;3.43;;;17.10;99.90;;;;;;5066534;28;20178;-79
2023/07/19 01:43:04;;;;;;;9.63;3.73;;;17.00;99.90;;;;;;5074286;28;20194;-80
2023/07/19 01:45:30;;;;;;;6.83;3.33;;;16.90;99.90;;;;;;5069741;28;20204;-78
2023/07/19 01:47:55;;;;;;;13.00;3.70;;;16.90;99.90;;;;;;5058751;28;20182;-78
2023/07/19 01:50:21;;;;;;;6.33;3.03;;;16.80;99.90;;;;;;5074576;28;20184;-80
2023/07/19 01:52:48;;;;;;;5.13;2.80;;;16.80;99.90;;;;;;5057029;28;20192;-79
2023/07/19 01:55:14;;;;;;;5.40;3.13;;;16.80;99.90;;;;;;5071561;28;20212;-78
2023/07/19 01:57:40;;;;;;;13.73;4.50;;;16.80;99.90;;;;;;5070616;28;20442;-78
2023/07/19 02:00:06;;;;;;;8.87;3.87;;;16.70;99.90;;;;;;5052578;28;20423;-78
2023/07/19 02:02:31;;;;;;;5.63;3.60;;;16.70;99.90;;;;;;5064337;28;20765;-78
2023/07/19 02:04:57;;;;;;;7.60;3.70;;;16.70;99.90;;;;;;5068046;28;20446;-78
2023/07/19 02:07:23;;;;;;;11.70;3.20;;;16.60;99.90;;;;;;5068305;28;20170;-76
2023/07/19 02:09:48;;;;;;;11.17;4.57;;;16.60;99.90;;;;;;5075069;28;20219;-79
2023/07/19 02:12:14;;;;;;;10.73;3.53;;;16.50;99.90;;;;;;5054592;28;20634;-78
2023/07/19 02:14:39;;;;;;;11.17;4.70;;;16.50;99.90;;;;;;5071395;28;20193;-78
2023/07/19 02:17:05;;;;;;;7.97;4.07;;;16.50;99.90;;;;;;5076363;28;20169;-80
2023/07/19 02:19:31;;;;;;;10.53;4.70;;;16.40;99.90;;;;;;5077433;28;20185;-78
2023/07/19 02:21:56;;;;;;;12.43;3.10;;;16.40;99.90;;;;;;5082049;28;20231;-79
2023/07/19 02:24:22;;;;;;;9.73;4.30;;;16.30;99.90;;;;;;5067801;28;20213;-78
2023/07/19 02:26:47;;;;;;;9.70;4.20;;;16.30;99.90;;;;;;5083872;28;20235;-79
2023/07/19 02:29:13;;;;;;;6.10;3.30;;;16.30;99.90;;;;;;5052913;28;20197;-80
2023/07/19 02:31:39;;;;;;;11.23;4.03;;;16.30;99.90;;;;;;5078829;28;20382;-79
2023/07/19 02:34:06;;;;;;;8.80;3.67;;;16.20;99.90;;;;;;5074130;28;20236;-79
2023/07/19 02:36:34;;;;;;;4.93;2.70;;;16.20;99.90;;;;;;5078835;28;20226;-79
2023/07/19 02:39:01;;;;;;;7.20;3.27;;;16.20;99.90;;;;;;5073988;28;20438;-80
2023/07/19 02:41:26;;;;;;;16.67;4.00;;;16.20;99.90;;;;;;5054418;28;20447;-79
2023/07/19 02:43:52;;;;;;;27.40;4.00;;;16.10;99.90;;;;;;5060235;28;20536;-79
2023/07/19 02:46:17;;;;;;;6.73;2.60;;;16.10;99.90;;;;;;5077298;28;20177;-78
2023/07/19 02:48:43;;;;;;;6.60;2.80;;;16.10;99.90;;;;;;5072071;28;20212;-80
2023/07/19 02:51:09;;;;;;;6.70;3.03;;;16.00;99.90;;;;;;5071320;28;20173;-80
2023/07/19 02:53:35;;;;;;;11.77;3.33;;;16.00;99.90;;;;;;5078278;28;20193;-80
2023/07/19 02:56:00;;;;;;;6.80;2.93;;;16.00;99.90;;;;;;5079910;28;20267;-79
2023/07/19 02:58:27;;;;;;;9.57;3.50;;;16.00;99.90;;;;;;5057952;28;20541;-79
2023/07/19 03:00:53;;;;;;;5.67;2.87;;;15.90;99.90;;;;;;5075471;28;20224;-79
2023/07/19 03:03:19;;;;;;;6.43;3.47;;;15.90;99.90;;;;;;5073098;28;20420;-80
2023/07/19 03:05:45;;;;;;;13.77;3.47;;;15.90;99.90;;;;;;5066618;28;20427;-79
2023/07/19 03:08:11;;;;;;;21.17;4.57;;;15.90;99.90;;;;;;5070883;28;20185;-77
2023/07/19 03:10:38;;;;;;;8.13;3.87;;;15.90;99.90;;;;;;5059068;28;20636;-80
2023/07/19 03:13:04;;;;;;;12.10;3.90;;;15.90;99.90;;;;;;5056772;28;20467;-79
2023/07/19 03:15:33;;;;;;;14.07;5.10;;;15.90;99.90;;;;;;5061227;28;20451;-78
2023/07/19 03:17:59;;;;;;;10.07;4.20;;;15.90;99.90;;;;;;5072198;28;20939;-78
2023/07/19 03:20:25;;;;;;;14.30;3.73;;;15.90;99.90;;;;;;5056793;28;20843;-80
2023/07/19 03:22:51;;;;;;;22.13;5.00;;;15.90;99.90;;;;;;5077023;28;20419;-79
2023/07/19 03:25:17;;;;;;;8.53;3.93;;;15.80;99.90;;;;;;5051614;28;20202;-79
2023/07/19 03:27:43;;;;;;;8.57;4.33;;;15.70;99.90;;;;;;5068334;28;20177;-77
2023/07/19 03:30:09;;;;;;;6.60;3.23;;;15.60;99.90;;;;;;5073994;28;20760;-80
2023/07/19 03:32:35;;;;;;;7.30;3.37;;;15.60;99.90;;;;;;5051874;28;20174;-78
2023/07/19 03:35:00;;;;;;;14.07;4.73;;;15.60;99.90;;;;;;5067122;28;20958;-79
2023/07/19 03:37:26;;;;;;;7.53;3.70;;;15.60;99.90;;;;;;5066182;28;20187;-79
2023/07/19 03:39:51;;;;;;;7.00;3.10;;;15.70;99.90;;;;;;5065402;28;20194;-79
2023/07/19 03:42:17;;;;;;;11.30;3.30;;;15.60;99.90;;;;;;5075535;28;20181;-78
2023/07/19 03:44:43;;;;;;;7.57;4.23;;;15.60;99.90;;;;;;5056448;28;20212;-78
2023/07/19 03:47:08;;;;;;;9.43;2.90;;;15.60;99.90;;;;;;5058355;28;20191;-78
2023/07/19 03:49:34;;;;;;;5.70;3.37;;;15.50;99.90;;;;;;5075319;28;20815;-78
2023/07/19 03:51:59;;;;;;;14.33;3.93;;;15.50;99.90;;;;;;5055995;28;20200;-79
2023/07/19 03:54:25;;;;;;;11.43;4.43;;;15.50;99.90;;;;;;5072605;28;20204;-77
2023/07/19 03:56:51;;;;;;;10.33;3.77;;;15.50;99.90;;;;;;5066662;28;20205;-77
2023/07/19 03:59:17;;;;;;;30.13;4.20;;;15.50;99.90;;;;;;5065850;28;20196;-78
2023/07/19 04:01:42;;;;;;;5.13;3.40;;;15.40;99.90;;;;;;5059630;28;20231;-79
2023/07/19 04:04:08;;;;;;;9.27;4.47;;;15.40;99.90;;;;;;5063711;28;20462;-77
2023/07/19 04:06:34;;;;;;;8.23;3.50;;;15.50;99.90;;;;;;5053115;28;20246;-79
2023/07/19 04:08:59;;;;;;;9.37;4.07;;;15.40;99.90;;;;;;5074174;28;20727;-78
2023/07/19 04:11:25;;;;;;;12.30;4.90;;;15.50;99.90;;;;;;5055233;28;20742;-78
2023/07/19 04:13:50;;;;;;;7.60;3.90;;;15.50;99.90;;;;;;5064742;28;20208;-78
2023/07/19 04:16:16;;;;;;;10.83;3.50;;;15.50;99.90;;;;;;5066745;28;20668;-78
2023/07/19 04:18:42;;;;;;;14.17;5.00;;;15.50;99.90;;;;;;5057224;28;20176;-78
2023/07/19 04:21:07;;;;;;;11.70;4.50;;;15.50;99.90;;;;;;5064830;28;20272;-78
2023/07/19 04:23:33;;;;;;;6.50;3.57;;;15.60;99.90;;;;;;5073402;28;20221;-79
2023/07/19 04:25:59;;;;;;;15.73;3.00;;;15.60;99.90;;;;;;5073938;28;20188;-78
2023/07/19 04:28:25;;;;;;;6.50;3.80;;;15.60;99.90;;;;;;5081956;28;20224;-79
2023/07/19 04:30:50;;;;;;;11.70;3.83;;;15.60;99.90;;;;;;5077299;28;20205;-79
2023/07/19 04:33:16;;;;;;;6.63;3.87;;;15.60;99.90;;;;;;5072831;28;20177;-77
2023/07/19 04:35:42;;;;;;;10.30;3.30;;;15.60;99.90;;;;;;5074127;28;20265;-79
2023/07/19 04:38:07;;;;;;;6.97;3.60;;;15.60;99.90;;;;;;5074136;28;20227;-77
2023/07/19 04:40:33;;;;;;;5.90;3.60;;;15.60;99.90;;;;;;5075036;28;20180;-78
2023/07/19 04:42:59;;;;;;;10.07;3.40;;;15.70;99.90;;;;;;5056292;28;20188;-78
2023/07/19 04:45:25;;;;;;;8.60;3.57;;;15.80;99.90;;;;;;5072015;28;20193;-77
2023/07/19 04:47:51;;;;;;;12.03;3.13;;;15.80;99.90;;;;;;5075389;28;20411;-79
2023/07/19 04:50:17;;;;;;;11.17;3.73;;;16.00;99.90;;;;;;5069332;28;20302;-79
2023/07/19 04:52:45;;;;;;;7.23;3.20;;;16.10;99.90;;;;;;5073912;28;20188;-79
2023/07/19 04:55:11;;;;;;;11.60;3.20;;;16.10;99.90;;;;;;5074187;28;20197;-78
2023/07/19 04:57:37;;;;;;;9.87;3.20;;;;;;;;;;5073813;28;20435;-78
2023/07/19 05:00:05;;;;;;;6.93;3.00;;;16.30;99.90;;;;;;5071411;28;20454;-79
2023/07/19 05:02:30;;;;;;;5.73;2.80;;;16.50;99.90;;;;;;5052924;28;20466;-78
2023/07/19 05:04:56;;;;;;;13.93;3.00;;;16.50;99.90;;;;;;5072013;28;20520;-78
2023/07/19 05:07:22;;;;;;;11.60;3.03;;;16.50;99.90;;;;;;5066079;28;20192;-79
2023/07/19 05:09:47;;;;;;;11.53;2.70;;;16.50;99.90;;;;;;5064377;28;20576;-79
2023/07/19 05:12:13;;;;;;;3.43;1.70;;;16.50;99.90;;;;;;5061958;28;20252;-77
2023/07/19 05:14:38;;;;;;;4.30;2.20;;;16.60;99.90;;;;;;5063425;28;20197;-79
2023/07/19 05:17:04;;;;;;;4.77;2.60;;;16.80;99.90;;;;;;5063098;28;20185;-80
2023/07/19 05:19:30;;;;;;;5.10;3.03;;;16.90;99.90;;;;;;5062573;28;20189;-77
2023/07/19 05:21:56;;;;;;;3.63;2.20;;;16.90;99.90;;;;;;5062773;28;20192;-78
2023/07/19 05:24:21;;;;;;;8.37;3.00;;;16.90;99.90;;;;;;5067252;28;20258;-79
2023/07/19 05:26:47;;;;;;;9.13;2.90;;;16.90;99.90;;;;;;5051998;28;20189;-79
2023/07/19 05:29:13;;;;;;;8.27;3.30;;;16.90;99.90;;;;;;5060059;28;20665;-79
2023/07/19 05:31:38;;;;;;;12.20;2.60;;;17.00;99.90;;;;;;5062562;28;20188;-78
2023/07/19 05:34:04;;;;;;;8.00;2.60;;;17.10;99.90;;;;;;5064722;28;20211;-80
2023/07/19 05:36:30;;;;;;;4.83;2.47;;;17.20;99.90;;;;;;5069848;28;20188;-80
2023/07/19 05:38:55;;;;;;;5.63;2.80;;;17.40;99.90;;;;;;5066960;28;20189;-80
2023/07/19 05:41:21;;;;;;;3.80;1.60;;;17.50;99.90;;;;;;5061939;28;20185;-80
2023/07/19 05:43:47;;;;;;;6.50;1.83;;;17.70;99.90;;;;;;5077897;28;20277;-81
2023/07/19 05:46:12;;;;;;;4.70;2.27;;;18.00;99.90;;;;;;5097182;28;20192;-80
2023/07/19 05:48:38;;;;;;;3.10;1.93;;;18.20;99.90;;;;;;5090914;28;20198;-80
2023/07/19 05:51:05;;;;;;;3.20;2.33;;;18.40;99.90;;;;;;5097362;28;20228;-81
2023/07/19 05:53:31;;;;;;;7.50;2.13;;;19.00;99.90;;;;;;5077180;28;20431;-78
2023/07/19 05:55:57;;;;;;;2.67;1.40;;;19.10;99.90;;;;;;5050812;28;20524;-79
2023/07/19 05:58:23;;;;;;;6.83;2.73;;;;;;;;;;5064238;28;20193;-80
2023/07/19 06:00:49;;;;;;;4.63;2.57;;;;;;;;;;5073005;28;20220;-80
2023/07/19 06:03:16;;;;;;;3.80;2.10;;;19.30;99.90;;;;;;5065774;28;20411;-77
2023/07/19 06:05:45;;;;;;;3.70;1.60;;;19.30;99.90;;;;;;5050401;28;20500;-79
2023/07/19 06:08:12;;;;;;;5.90;2.83;;;19.40;99.90;;;;;;5075364;28;20412;-80
2023/07/19 06:10:38;;;;;;;5.00;2.07;;;19.60;99.90;;;;;;5075262;28;20428;-80
2023/07/19 06:13:03;;;;;;;3.27;1.77;;;19.60;99.90;;;;;;5074001;28;21040;-80
2023/07/19 06:15:31;;;;;;;1.60;0.93;;;19.60;99.90;;;;;;5068718;28;20474;-80
2023/07/19 06:17:57;;;;;;;7.00;2.10;;;19.70;99.90;;;;;;5063674;28;20189;-80
2023/07/19 06:20:23;;;;;;;4.63;2.10;;;20.00;99.90;;;;;;5071393;28;20773;-80
2023/07/19 06:22:48;;;;;;;4.67;2.47;;;20.00;99.90;;;;;;5071391;28;20579;-80
2023/07/19 06:25:18;;;;;;;4.57;1.90;;;20.00;99.90;;;;;;5071378;28;20216;-79
2023/07/19 06:27:44;;;;;;;4.23;2.20;;;20.10;99.90;;;;;;5075114;28;20192;-80
2023/07/19 06:30:11;;;;;;;7.50;2.47;;;20.30;99.90;;;;;;5077457;28;20514;-78
2023/07/19 06:32:36;;;;;;;3.43;1.80;;;20.30;99.90;;;;;;5067394;28;20361;-79
2023/07/19 06:35:03;;;;;;;5.27;2.50;;;20.40;99.90;;;;;;5067453;28;20443;-80
2023/07/19 06:37:29;;;;;;;6.97;2.60;;;20.50;99.90;;;;;;5071870;28;20173;-78
2023/07/19 06:39:54;;;;;;;2.97;1.70;;;20.60;99.90;;;;;;5064068;28;20459;-79
2023/07/19 06:42:20;;;;;;;5.30;2.17;;;20.60;99.90;;;;;;5070535;28;20174;-81
2023/07/19 06:44:47;;;;;;;4.07;1.80;;;20.80;99.90;;;;;;5067278;28;20239;-79
2023/07/19 06:47:14;;;;;;;3.70;2.43;;;20.90;99.90;;;;;;5068748;28;20547;-80
2023/07/19 06:49:40;;;;;;;5.30;2.53;;;20.90;99.90;;;;;;5071730;28;20451;-79
2023/07/19 06:52:06;;;;;;;6.87;2.40;;;21.00;99.90;;;;;;5076008;28;20423;-81
2023/07/19 06:54:32;;;;;;;9.40;1.97;;;21.20;99.90;;;;;;5067024;28;20292;-80
2023/07/19 06:56:57;;;;;;;4.87;1.87;;;21.30;99.90;;;;;;5054571;28;20959;-77
2023/07/19 06:59:23;;;;;;;5.03;2.23;;;21.40;99.90;;;;;;5072905;28;20181;-80
2023/07/19 07:01:48;;;;;;;3.90;2.07;;;21.50;99.90;;;;;;5076127;28;20205;-79
2023/07/19 07:04:15;;;;;;;15.80;2.70;;;21.70;99.90;;;;;;5069655;28;20760;-79
2023/07/19 07:06:40;;;;;;;2.73;1.70;;;22.00;99.40;;;;;;5065313;28;20580;-79
2023/07/19 07:09:06;;;;;;;4.73;2.00;;;22.00;99.80;;;;;;5061317;28;20459;-80
2023/07/19 07:11:31;;;;;;;2.77;1.30;;;22.10;98.20;;;;;;5070172;28;20230;-80
2023/07/19 07:13:57;;;;;;;3.97;1.50;;;22.20;97.80;;;;;;5065168;28;20201;-78
2023/07/19 07:16:23;;;;;;;3.50;1.87;;;22.30;98.00;;;;;;5063907;28;20174;-79
2023/07/19 07:18:48;;;;;;;3.50;1.73;;;22.50;96.70;;;;;;5072059;28;20575;-79
2023/07/19 07:21:15;;;;;;;5.00;1.70;;;22.60;96.50;;;;;;5062993;28;20654;-80
2023/07/19 07:23:41;;;;;;;3.00;1.53;;;22.80;96.70;;;;;;5050835;28;20208;-80
2023/07/19 07:26:07;;;;;;;2.73;1.37;;;23.00;95.10;;;;;;5074611;28;20430;-79
2023/07/19 07:28:32;;;;;;;5.27;1.70;;;23.30;94.70;;;;;;5072521;28;20709;-81
2023/07/19 07:31:05;;;;;;;3.20;1.07;;;23.50;94.20;;;;;;5071006;28;20184;-79
2023/07/19 07:33:31;;;;;;;3.07;1.40;;;23.40;92.70;;;;;;5074247;28;20196;-80
2023/07/19 07:35:57;;;;;;;12.93;1.83;;;23.70;91.60;;;;;;5076664;28;20411;-80
2023/07/19 07:38:22;;;;;;;2.03;1.20;;;23.90;90.00;;;;;;5070149;28;20173;-81
2023/07/19 07:40:48;;;;;;;2.20;1.07;;;23.90;89.10;;;;;;5066362;28;20654;-80
2023/07/19 07:43:14;;;;;;;3.50;1.03;;;24.20;88.80;;;;;;5079059;28;20181;-80
2023/07/19 07:45:39;;;;;;;4.33;1.50;;;24.70;89.40;;;;;;5058775;28;20193;-81
2023/07/19 07:48:05;;;;;;;2.80;1.37;;;25.40;86.30;;;;;;5059969;28;20173;-81
2023/07/19 07:50:31;;;;;;;2.60;1.27;;;25.80;84.30;;;;;;5078607;28;20208;-81
2023/07/19 07:52:56;;;;;;;6.97;2.30;;;25.60;81.90;;;;;;5075629;28;20181;-81
2023/07/19 07:55:22;;;;;;;2.80;1.27;;;25.30;80.30;;;;;;5081815;28;20269;-81
2023/07/19 07:57:48;;;;;;;4.30;1.30;;;25.50;80.60;;;;;;5078210;28;20229;-81
2023/07/19 08:00:15;;;;;;;9.80;1.40;;;25.70;79.00;;;;;;5065679;28;20184;-81
2023/07/19 08:02:40;;;;;;;2.67;1.25;;;26.00;77.60;;;;;;5064679;28;20188;-81
2023/07/19 08:05:06;;;;;;;2.13;1.20;;;26.70;78.70;;;;;;5065460;28;20211;-80
2023/07/19 08:07:32;;;;;;;5.65;1.55;;;27.10;75.20;;;;;;5067161;28;20205;-79
2023/07/19 08:09:57;;;;;;;2.95;1.48;;;27.10;74.70;;;;;;5068072;28;20201;-80
2023/07/19 08:12:24;;;;;;;3.25;1.42;;;27.30;74.90;;;;;;5067273;28;20320;-79
2023/07/19 08:14:50;;;;;;;3.30;1.13;;;27.20;73.90;;;;;;5062230;28;20193;-78
2023/07/19 08:17:16;;;;;;;4.80;1.13;;;27.80;73.80;;;;;;5059246;28;20168;-78
2023/07/19 08:19:41;;;;;;;4.15;1.23;;;27.50;72.20;;;;;;5065918;28;20262;-79
2023/07/19 08:22:22;;;;;;;2.13;1.17;;;27.50;70.10;;;;;;5063884;28;20196;-80
2023/07/19 08:24:48;;;;;;;4.28;1.40;;;27.60;70.00;;;;;;5062735;28;20236;-79
2023/07/19 08:27:13;;;;;;;2.25;1.13;;;27.40;71.90;;;;;;5066422;28;20223;-78
2023/07/19 08:29:39;;;;;;;3.58;1.00;;;27.30;72.40;;;;;;5064534;28;20566;-79
2023/07/19 08:32:05;;;;;;;3.38;1.17;;;28.00;70.20;;;;;;5063622;28;20251;-79
2023/07/19 08:34:30;;;;;;;3.10;0.90;;;27.50;68.60;;;;;;5063539;28;20212;-79
2023/07/19 08:36:56;;;;;;;2.65;1.48;;;27.20;69.30;;;;;;5064122;28;20195;-77
2023/07/19 08:39:23;;;;;;;2.00;1.10;;;27.80;68.30;;;;;;5062284;28;20180;-82
2023/07/19 08:41:48;;;;;;;2.33;1.10;;;28.00;68.00;;;;;;5063305;28;20227;-79
2023/07/19 08:44:15;;;;;;;2.22;1.17;;;28.00;67.40;;;;;;5071428;28;20283;-79
2023/07/19 08:46:43;;;;;;;3.38;1.30;;;28.50;66.90;;;;;;5068652;28;20184;-79
2023/07/19 08:49:09;;;;;;;2.63;0.90;;;28.60;66.60;;;;;;5071000;28;20192;-79
2023/07/19 08:51:38;;;;;;;2.22;1.02;;;28.80;64.30;;;;;;5067636;28;20254;-79
2023/07/19 08:54:04;;;;;;;2.70;1.10;;;28.80;61.90;;;;;;5066669;28;20338;-79
2023/07/19 08:56:31;;;;;;;2.05;1.05;;;28.50;62.20;;;;;;5071292;28;20207;-79
2023/07/19 08:58:57;;;;;;;2.58;0.85;;;29.20;62.90;;;;;;5065787;28;20180;-79
2023/07/19 09:01:22;;;;;;;3.47;1.17;;;29.20;62.30;;;;;;5067533;28;20179;-79
2023/07/19 09:03:48;;;;;;;2.30;1.00;;;29.20;62.80;;;;;;5049768;28;20214;-79
2023/07/19 09:06:24;;;;;;;2.92;0.90;;;29.10;61.70;;;;;;5052239;28;20189;-79
2023/07/19 09:08:51;;;;;;;2.53;1.20;;;29.00;62.50;;;;;;5063381;28;20294;-79
2023/07/19 09:11:24;;;;;;;5.97;0.98;;;28.60;63.20;;;;;;5045279;28;20959;-78
2023/07/19 09:13:54;;;;;;;3.25;1.20;;;28.40;65.60;;;;;;5061309;28;20204;-79
2023/07/19 09:16:30;;;;;;;3.22;1.42;;;28.30;65.40;;;;;;5063420;28;20173;-79
2023/07/19 09:19:01;;;;;;;3.55;1.20;;;28.60;65.40;;;;;;5046422;28;20198;-79
2023/07/19 09:21:36;;;;;;;4.57;1.52;;;28.90;63.80;;;;;;5067816;28;20208;-78
2023/07/19 09:24:06;;;;;;;2.03;0.80;;;28.90;61.70;;;;;;5062265;28;20222;-79
2023/07/19 09:26:48;;;;;;;3.22;0.88;;;29.30;61.00;;;;;;5064442;28;20223;-79
2023/07/19 09:29:14;;;;;;;2.95;1.08;;;29.50;61.60;;;;;;5046354;28;20215;-78
2023/07/19 09:32:00;;;;;;;1.77;0.90;;;29.60;60.80;;;;;;5065295;28;20177;-78
2023/07/19 09:34:37;;;;;;;2.33;1.00;;;29.70;59.50;;;;;;5063042;28;20204;-78
2023/07/19 09:37:04;;;;;;;6.47;1.30;;;29.80;59.40;;;;;;5064410;28;20202;-80
2023/07/19 09:39:30;;;;;;;9.93;1.30;;;29.80;58.30;;;;;;5061894;28;20184;-79
2023/07/19 09:41:57;;;;;;;2.38;1.00;;;29.90;57.00;;;;;;5065213;28;20555;-79
2023/07/19 09:44:23;;;;;;;2.10;1.13;;;29.40;59.40;;;;;;5062120;28;20195;-79
2023/07/19 09:46:49;;;;;;;2.50;0.90;;;29.50;58.60;;;;;;5064529;28;20184;-79
2023/07/19 09:49:15;;;;;;;1.65;0.85;;;29.60;59.30;;;;;;5065788;28;20208;-79
2023/07/19 09:51:42;;;;;;;5.18;1.13;;;29.60;58.60;;;;;;5062679;28;20185;-78
2023/07/19 09:54:12;;;;;;;6.82;1.27;;;29.50;57.60;;;;;;5051804;28;20567;-78
2023/07/19 09:56:40;;;;;;;6.88;2.03;;;29.60;60.20;;;;;;5062190;28;20181;-79
2023/07/19 09:59:10;;;;;;;2.53;1.02;;;30.10;57.30;;;;;;5065267;28;20181;-79
2023/07/19 10:01:37;;;;;;;2.88;1.52;;;30.00;61.10;;;;;;5063871;28;20235;-80
2023/07/19 10:04:26;;;;;;;2.67;1.23;;;30.40;57.60;;;;;;5047311;28;20231;-79
2023/07/19 10:07:05;;;;;;;3.95;1.70;;;30.20;56.80;;;;;;5048213;28;20196;-79
2023/07/19 10:09:34;;;;;;;2.83;1.23;;;30.20;56.80;;;;;;5066259;28;20207;-79
2023/07/19 10:12:23;;;;;;;3.30;1.30;;;29.80;57.10;;;;;;5061764;28;20190;-79
2023/07/19 10:14:54;;;;;;;4.43;1.20;;;28.80;58.20;;;;;;5057583;28;20200;-79
2023/07/19 10:17:20;;;;;;;4.28;1.63;;;28.30;59.70;;;;;;5096299;28;20186;-79
2023/07/19 10:20:05;;;;;;;3.33;1.50;;;27.70;60.80;;;;;;5089472;28;20180;-79
2023/07/19 10:22:49;;;;;;;3.53;1.45;;;27.70;61.40;;;;;;5085068;28;20192;-80
2023/07/19 10:25:20;;;;;;;5.05;1.42;;;28.00;61.40;;;;;;5068958;28;20252;-81
2023/07/19 10:27:58;;;;;;;4.90;1.67;;;28.50;60.10;;;;;;5066807;28;20260;-79
2023/07/19 10:30:45;;;;;;;4.45;1.60;;;28.60;59.50;;;;;;5063401;28;20299;-77
2023/07/19 10:33:21;;;;;;;2.20;1.00;;;28.70;58.80;;;;;;5057876;28;20180;-76
2023/07/19 10:35:50;;;;;;;3.63;1.73;;;28.60;59.50;;;;;;5074073;28;20191;-79
2023/07/19 10:38:23;;;;;;;4.33;1.90;;;28.20;59.70;;;;;;5073486;28;20168;-78
2023/07/19 10:40:56;;;;;;;2.37;1.20;;;27.90;59.00;;;;;;5068367;28;20183;-79
2023/07/19 10:43:22;;;;;;;4.40;1.53;;;27.90;60.90;;;;;;5063883;28;20177;-79
2023/07/19 10:45:48;;;;;;;2.57;1.20;;;28.10;62.60;;;;;;5071435;28;20313;-79
2023/07/19 10:48:13;;;;;;;4.10;1.33;;;28.10;61.60;;;;;;5072600;28;20687;-79
2023/07/19 10:50:41;;;;;;;4.10;1.57;;;28.20;60.40;;;;;;5051636;28;20259;-77
2023/07/19 10:53:07;;;;;;;2.13;1.27;;;28.10;60.30;;;;;;5066169;28;20173;-79
2023/07/19 10:55:33;;;;;;;3.93;1.50;;;28.30;62.60;;;;;;5061727;28;20204;-79
2023/07/19 10:57:58;;;;;;;8.65;1.92;;;28.30;62.20;;;;;;5051977;28;20252;-79
2023/07/19 11:00:24;;;;;;;5.10;1.97;;;28.50;61.70;;;;;;5066758;28;20192;-80
2023/07/19 11:02:53;;;;;;;3.20;1.50;;;28.40;62.00;;;;;;5073606;28;20176;-79
2023/07/19 11:05:19;;;;;;;12.63;2.23;;;28.40;62.70;;;;;;5073198;28;20367;-79
2023/07/19 11:07:49;;;;;;;3.90;1.63;;;28.40;62.30;;;;;;5068893;28;20248;-77
2023/07/19 11:10:15;;;;;;;3.50;1.63;;;28.30;62.40;;;;;;5054033;28;20220;-79
2023/07/19 11:12:41;;;;;;;5.73;1.50;;;28.20;61.20;;;;;;5053725;28;20420;-80
2023/07/19 11:15:08;;;;;;;5.83;1.27;;;28.00;61.30;;;;;;5071495;28;20304;-80
2023/07/19 11:17:35;;;;;;;5.53;1.43;;;28.20;61.40;;;;;;5072302;28;20188;-83
2023/07/19 11:20:01;;;;;;;3.37;1.70;;;28.10;61.70;;;;;;5051574;28;20188;-82
2023/07/19 11:22:27;;;;;;;7.07;1.70;;;28.40;60.30;;;;;;5073897;28;20525;-81
2023/07/19 11:24:54;;;;;;;2.90;1.20;;;28.50;62.80;;;;;;5073238;28;20215;-81
2023/07/19 11:27:35;;;;;;;5.50;1.30;;;28.70;61.20;;;;;;5072434;28;20195;-80
2023/07/19 11:30:01;;;;;;;4.22;1.80;;;28.80;61.80;;;;;;5067926;28;20638;-80
2023/07/19 11:32:26;;;;;;;3.67;1.50;;;29.00;59.80;;;;;;5053525;28;20200;-81
2023/07/19 11:34:59;;;;;;;3.55;1.50;;;29.30;58.10;;;;;;5061499;28;20205;-80
2023/07/19 11:37:32;;;;;;;4.78;1.70;;;29.70;57.70;;;;;;5067928;28;20176;-79
2023/07/19 11:40:04;;;;;;;3.15;1.60;;;29.90;56.60;;;;;;5065286;28;20188;-80
2023/07/19 11:42:50;;;;;;;4.25;1.50;;;29.70;57.10;;;;;;5068440;28;20734;-80
2023/07/19 11:45:21;;;;;;;14.18;1.70;;;29.40;57.60;;;;;;5057323;28;20699;-81
2023/07/19 11:47:52;;;;;;;2.92;1.67;;;29.00;58.60;;;;;;5068686;28;20276;-81
2023/07/19 11:50:18;;;;;;;5.55;1.58;;;28.90;59.10;;;;;;5067431;28;20633;-81
2023/07/19 11:52:48;;;;;;;7.28;1.50;;;28.70;58.60;;;;;;5070352;28;20192;-80
2023/07/19 11:55:15;;;;;;;3.70;1.97;;;28.60;59.50;;;;;;5056059;28;20189;-81
2023/07/19 11:57:42;;;;;;;2.13;1.47;;;28.30;59.30;;;;;;5062756;28;20766;-79
2023/07/19 12:00:10;;;;;;;3.13;1.40;;;28.50;59.60;;;;;;5066234;28;20214;-78
2023/07/19 12:02:36;;;;;;;6.28;1.73;;;28.50;59.70;;;;;;5068526;28;20248;-81
2023/07/19 12:05:04;;;;;;;4.30;1.77;;;28.60;59.60;;;;;;5074004;28;20216;-80
2023/07/19 12:07:33;;;;;;;2.97;1.60;;;28.30;60.80;;;;;;5068302;28;20183;-81
2023/07/19 12:10:02;;;;;;;7.30;2.43;;;28.40;61.60;;;;;;5071722;28;20192;-80
2023/07/19 12:12:28;;;;;;;6.77;1.43;;;28.80;59.20;;;;;;5070888;28;20238;-81
2023/07/19 12:14:53;;;;;;;3.00;1.57;;;29.10;59.70;;;;;;5066562;28;20201;-81
2023/07/19 12:17:19;;;;;;;2.42;1.63;;;29.00;58.40;;;;;;5066043;28;20649;-80
2023/07/19 12:19:45;;;;;;;6.00;1.77;;;28.80;59.70;;;;;;5074451;28;20181;-81
2023/07/19 12:22:11;;;;;;;2.60;1.60;;;28.80;60.30;;;;;;5069717;28;20204;-81
2023/07/19 12:24:36;;;;;;;4.85;2.08;;;29.10;60.20;;;;;;5057263;28;20204;-80
2023/07/19 12:27:02;;;;;;;3.38;1.73;;;29.30;59.10;;;;;;5066271;28;20251;-81
2023/07/19 12:29:29;;;;;;;9.18;2.17;;;29.40;61.00;;;;;;5072331;28;20271;-82
2023/07/19 12:31:54;;;;;;;5.10;1.75;;;29.30;59.70;;;;;;5069374;28;20181;-80
2023/07/19 12:34:20;;;;;;;4.90;1.88;;;29.30;60.00;;;;;;5064521;28;20216;-81
2023/07/19 12:36:50;;;;;;;3.72;2.00;;;29.00;60.70;;;;;;5064962;28;20174;-80
2023/07/19 12:39:24;;;;;;;3.35;1.70;;;28.70;62.00;;;;;;5068926;28;20231;-81
2023/07/19 12:41:52;;;;;;;4.32;1.45;;;28.60;62.20;;;;;;5058555;28;20303;-81
2023/07/19 12:44:20;;;;;;;3.63;1.97;;;28.60;62.80;;;;;;5068093;28;20208;-81